Hordafor III — LLVC — position and weather

sailwx.info

Track history (hours):
 
Tides and Currents Weather Stations Pressure Air Temp Water Temp Dewpoint Dewpoint Depression Visibility Wind Speed Wind Dir Waves Ship Positions

Hordafor III

Last reported at 2016-Jul-22 03:30 UTC. Time now 2016-Jul-24 16:41 UTC.
Position N 59°48' E 005°19'.

Length 50 m; draft 6 m.

Type: Wing in ground effect craft. MMSI: 258044000.

Date/timePositionNaut miles runAvg speedWind from/ knotsBaromVisibWave heightAir tempDewpointWater temp
2016-Jul-22 03:30N 59°48' E 005°19'7 7.0
2016-Jul-22 02:33N 59°42' E 005°24'5 4.7
2016-Jul-22 01:32N 59°38' E 005°19'23 7.8
2016-Jul-21 22:32N 59°15' E 005°21'8 8.6
2016-Jul-21 21:33N 59°09' E 005°31'10 9.9
2016-Jul-21 20:33N 59°03' E 005°47'6 6.3
2016-Jul-21 19:33N 58°59' E 005°56'0 0.1
2016-Jul-21 18:33N 58°58' E 005°56'0 0.0
2016-Jul-21 17:33N 58°58' E 005°56'0 0.0
2016-Jul-21 16:33N 58°58' E 005°56'0 0.0
2016-Jul-21 15:33N 58°58' E 005°56'0 0.0
2016-Jul-21 14:33N 58°58' E 005°56'0 0.1
2016-Jul-21 13:33N 58°58' E 005°56'0 0.0
2016-Jul-21 12:33N 58°58' E 005°56'0 0.0
2016-Jul-21 11:34N 58°58' E 005°56'0 0.0
2016-Jul-21 10:33N 58°58' E 005°56'0 0.0
2016-Jul-21 09:33N 58°58' E 005°56'0 0.0
2016-Jul-21 08:33N 58°58' E 005°56'0 0.0
2016-Jul-21 07:33N 58°58' E 005°56'0 0.0
2016-Jul-21 06:33N 58°58' E 005°56'0 0.0
2016-Jul-21 05:33N 58°58' E 005°56'0 0.0
2016-Jul-21 04:33N 58°58' E 005°56'0 0.2
2016-Jul-21 03:33N 58°58' E 005°56'3 3.1
2016-Jul-21 02:33N 59°01' E 005°52'3 3.3
2016-Jul-21 01:34N 59°04' E 005°50'0 0.0
2016-Jul-21 00:33N 59°04' E 005°50'0 0.0
2016-Jul-20 23:33N 59°04' E 005°50'2 2.0
2016-Jul-20 22:33N 59°06' E 005°49'10 9.7
2016-Jul-20 21:33N 59°11' E 005°32'27 8.0
2016-Jul-20 18:12N 59°37' E 005°18'710.2
2016-Jul-20 17:32N 59°43' E 005°24'  
2016-Jul-13 10:04N 59°47' E 005°20'4 8.0
2016-Jul-13 09:33N 59°44' E 005°27'3 3.0
2016-Jul-13 08:33N 59°47' E 005°30'0 0.0
2016-Jul-13 07:30N 59°47' E 005°30'0 0.0
2016-Jul-13 06:32N 59°47' E 005°30'0 0.0
2016-Jul-13 05:32N 59°47' E 005°30'0 0.0
2016-Jul-13 04:32N 59°47' E 005°30'0 0.0
2016-Jul-13 03:32N 59°47' E 005°30'0 0.0
2016-Jul-13 02:32N 59°47' E 005°30'0 0.0
2016-Jul-13 01:31N 59°47' E 005°30'0 0.0
2016-Jul-13 00:32N 59°47' E 005°30'0 0.0
2016-Jul-12 23:34N 59°47' E 005°30'0 0.0
2016-Jul-12 22:32N 59°47' E 005°30'0 0.0
2016-Jul-12 21:32N 59°47' E 005°30'0 0.0
2016-Jul-12 20:33N 59°47' E 005°30'0 0.0
2016-Jul-12 19:32N 59°47' E 005°30'0 0.0
2016-Jul-12 18:32N 59°47' E 005°30'0 0.0
2016-Jul-12 17:33N 59°47' E 005°30'0 0.0
2016-Jul-12 16:33N 59°47' E 005°30'0 0.0
2016-Jul-12 15:32N 59°47' E 005°30'0 0.0
2016-Jul-12 14:33N 59°47' E 005°30'4 4.3
2016-Jul-12 13:33N 59°43' E 005°27'11 9.5
2016-Jul-12 12:24N 59°34' E 005°15'19 4.0
2016-Jul-12 07:33N 59°15' E 005°23'9 9.3
2016-Jul-12 06:33N 59°12' E 005°39'5 2.3
2016-Jul-12 04:32N 59°12' E 005°31'  
Track history (hours):
 
Tides and Currents Weather Stations Pressure Air Temp Water Temp Dewpoint Dewpoint Depression Visibility Wind Speed Wind Dir Waves Ship Positions

Hordafor III

Last reported at 2016-Jul-22 03:30 UTC. Time now 2016-Jul-24 16:41 UTC.
Position N 59°48' E 005°19'.

Length 50 m; draft 6 m.

Type: Wing in ground effect craft. MMSI: 258044000.

Date/timePositionNaut miles runAvg speedWind from/ knotsBaromVisibWave heightAir tempDewpointWater temp
2016-Jul-22 03:30N 59°48' E 005°19'7 7.0
2016-Jul-22 02:33N 59°42' E 005°24'5 4.7
2016-Jul-22 01:32N 59°38' E 005°19'23 7.8
2016-Jul-21 22:32N 59°15' E 005°21'8 8.6
2016-Jul-21 21:33N 59°09' E 005°31'10 9.9
2016-Jul-21 20:33N 59°03' E 005°47'6 6.3
2016-Jul-21 19:33N 58°59' E 005°56'0 0.1
2016-Jul-21 18:33N 58°58' E 005°56'0 0.0
2016-Jul-21 17:33N 58°58' E 005°56'0 0.0
2016-Jul-21 16:33N 58°58' E 005°56'0 0.0
2016-Jul-21 15:33N 58°58' E 005°56'0 0.0
2016-Jul-21 14:33N 58°58' E 005°56'0 0.1
2016-Jul-21 13:33N 58°58' E 005°56'0 0.0
2016-Jul-21 12:33N 58°58' E 005°56'0 0.0
2016-Jul-21 11:34N 58°58' E 005°56'0 0.0
2016-Jul-21 10:33N 58°58' E 005°56'0 0.0
2016-Jul-21 09:33N 58°58' E 005°56'0 0.0
2016-Jul-21 08:33N 58°58' E 005°56'0 0.0
2016-Jul-21 07:33N 58°58' E 005°56'0 0.0
2016-Jul-21 06:33N 58°58' E 005°56'0 0.0
2016-Jul-21 05:33N 58°58' E 005°56'0 0.0
2016-Jul-21 04:33N 58°58' E 005°56'0 0.2
2016-Jul-21 03:33N 58°58' E 005°56'3 3.1
2016-Jul-21 02:33N 59°01' E 005°52'3 3.3
2016-Jul-21 01:34N 59°04' E 005°50'0 0.0
2016-Jul-21 00:33N 59°04' E 005°50'0 0.0
2016-Jul-20 23:33N 59°04' E 005°50'2 2.0
2016-Jul-20 22:33N 59°06' E 005°49'10 9.7
2016-Jul-20 21:33N 59°11' E 005°32'27 8.0
2016-Jul-20 18:12N 59°37' E 005°18'710.2
2016-Jul-20 17:32N 59°43' E 005°24'  
2016-Jul-13 10:04N 59°47' E 005°20'4 8.0
2016-Jul-13 09:33N 59°44' E 005°27'3 3.0
2016-Jul-13 08:33N 59°47' E 005°30'0 0.0
2016-Jul-13 07:30N 59°47' E 005°30'0 0.0
2016-Jul-13 06:32N 59°47' E 005°30'0 0.0
2016-Jul-13 05:32N 59°47' E 005°30'0 0.0
2016-Jul-13 04:32N 59°47' E 005°30'0 0.0
2016-Jul-13 03:32N 59°47' E 005°30'0 0.0
2016-Jul-13 02:32N 59°47' E 005°30'0 0.0
2016-Jul-13 01:31N 59°47' E 005°30'0 0.0
2016-Jul-13 00:32N 59°47' E 005°30'0 0.0
2016-Jul-12 23:34N 59°47' E 005°30'0 0.0
2016-Jul-12 22:32N 59°47' E 005°30'0 0.0
2016-Jul-12 21:32N 59°47' E 005°30'0 0.0
2016-Jul-12 20:33N 59°47' E 005°30'0 0.0
2016-Jul-12 19:32N 59°47' E 005°30'0 0.0
2016-Jul-12 18:32N 59°47' E 005°30'0 0.0
2016-Jul-12 17:33N 59°47' E 005°30'0 0.0
2016-Jul-12 16:33N 59°47' E 005°30'0 0.0
2016-Jul-12 15:32N 59°47' E 005°30'0 0.0
2016-Jul-12 14:33N 59°47' E 005°30'4 4.3
2016-Jul-12 13:33N 59°43' E 005°27'11 9.5
2016-Jul-12 12:24N 59°34' E 005°15'19 4.0
2016-Jul-12 07:33N 59°15' E 005°23'9 9.3
2016-Jul-12 06:33N 59°12' E 005°39'5 2.3
2016-Jul-12 04:32N 59°12' E 005°31'  

Dump ship's entire track history